Home   Weather   Tunisia   Monastir   Past weeks
Flag for Tunisia

Past Weather in Monastir, Tunisia — Yesterday and Last 2 Weeks

Currently: 84 °F. Warm. (Weather station: Habib Bourguiba, Tunisia). See more current weather

Past Weather in Monastir — Graph

°F

Monastir Temperature Yesterday

Maximum temperature yesterday: 102 °F (at 2:00 pm)
Minimum temperature yesterday: 81 °F (at 5:00 am)
Average temperature yesterday: 91 °F

High & Low Weather Summary for the Past Weeks

 TemperatureHumidityPressure
High102 °F (Aug 16, 4:30 pm)100% (Aug 17, 7:30 am)30.01 "Hg (Aug 17, 7:30 am)
Low75 °F (Aug 4, 5:30 am)22% (Aug 13, 1:00 pm)29.74 "Hg (Aug 15, 3:30 pm)
Average86 °F63%29.91 "Hg
* Reported Aug 3 3:00 am — Aug 18 3:30 am, Monastir. Weather by CustomWeather, © 2022

Note: Actual official high and low records may vary slightly from our data, if they occured in-between our weather recording intervals... More about our weather records

Monastir Weather History for the Previous 24 Hours

Scroll right to see more
 ConditionsComfort  
Time TempWeatherWind HumidityBarometerVisibility
3:30 am
Thu, Aug 18
84 °FPassing clouds.2 mph79%29.80 "Hg5 mi
3:00 am84 °FPassing clouds.2 mph84%29.80 "Hg5 mi
2:30 am86 °FPassing clouds.5 mph79%29.83 "Hg5 mi
2:00 am86 °FPassing clouds.3 mph75%29.83 "Hg5 mi
12:00 am88 °FPassing clouds.10 mph70%29.86 "Hg5 mi
11:30 pm
Wed, Aug 17
88 °FPassing clouds.23 mph70%29.83 "Hg5 mi
11:00 pm88 °FPassing clouds.16 mph75%29.86 "Hg5 mi
10:30 pm88 °FPassing clouds.16 mph75%29.83 "Hg5 mi
10:00 pm88 °FPassing clouds.18 mph75%29.83 "Hg5 mi
9:00 pm88 °FPassing clouds.18 mph70%29.83 "Hg5 mi
8:30 pm91 °FPassing clouds.10 mph67%29.80 "Hg5 mi
8:00 pm91 °FPassing clouds.14 mph67%29.80 "Hg5 mi
7:30 pm91 °FPassing clouds.14 mph71%29.80 "Hg5 mi
7:00 pm93 °FPassing clouds.16 mph67%29.80 "Hg5 mi
6:00 pm93 °FPassing clouds.16 mph63%29.80 "Hg5 mi
5:30 pm95 °FPassing clouds.22 mph60%29.77 "Hg5 mi
5:00 pm97 °FPassing clouds.23 mph56%29.77 "Hg5 mi
4:30 pm100 °FPassing clouds.24 mph47%29.77 "Hg5 mi
4:00 pm100 °FPassing clouds.20 mph47%29.77 "Hg5 mi
3:30 pm100 °FPassing clouds.20 mph50%29.77 "Hg5 mi
3:00 pm102 °FPassing clouds.20 mph48%29.77 "Hg5 mi
2:30 pm102 °FPassing clouds.20 mph48%29.80 "Hg5 mi
2:00 pm102 °FSunny.20 mph45%29.80 "Hg10 mi
1:00 pm97 °FSunny.21 mph60%29.83 "Hg10 mi
12:00 pm95 °FSunny.14 mph63%29.86 "Hg10 mi
11:30 am95 °FSunny.12 mph60%29.86 "Hg10 mi
11:00 am97 °FSunny.9 mph56%29.86 "Hg10 mi
10:00 am97 °FPassing clouds.7 mph44%29.89 "Hg5 mi
9:00 am91 °FPassing clouds.10 mph59%29.89 "Hg5 mi
8:30 am88 °FPassing clouds.6 mph70%29.89 "Hg4 mi
8:00 am86 °FPassing clouds.7 mph84%29.89 "Hg3 mi
7:30 am82 °FPassing clouds.9 mph100%29.86 "Hg3 mi
7:00 am82 °FFog.9 mph94%29.86 "Hg2 mi
6:00 am82 °FScattered clouds.6 mph94%29.89 "Hg4 mi
5:00 am81 °FClear.3 mph94%29.89 "Hg5 mi
Weather by CustomWeather, © 2022

See weather overview